createdAt,value
2018-12-26T00:00:37.609Z,4.08
2018-12-26T00:01:37.924Z,4.18
2018-12-26T00:02:37.991Z,4.08
2018-12-26T00:03:38.170Z,4.20
2018-12-26T00:04:38.348Z,4.26
2018-12-26T00:05:38.635Z,4.14
2018-12-26T00:06:38.712Z,4.23
2018-12-26T00:07:38.903Z,4.18
2018-12-26T00:08:39.085Z,4.23
2018-12-26T00:09:39.285Z,4.29
2018-12-26T00:10:39.469Z,4.26
2018-12-26T00:11:39.640Z,4.26
2018-12-26T00:12:39.840Z,4.22
2018-12-26T00:13:40.041Z,4.20
2018-12-26T00:14:40.214Z,4.23
2018-12-26T00:15:40.394Z,4.22
2018-12-26T00:16:40.585Z,4.16
2018-12-26T00:17:40.935Z,4.11
2018-12-26T00:18:41.077Z,4.06
2018-12-26T00:19:41.192Z,4.09
2018-12-26T00:20:41.348Z,4.18
2018-12-26T00:21:41.531Z,4.06
2018-12-26T00:22:41.720Z,4.00
2018-12-26T00:23:41.916Z,4.20
2018-12-26T00:24:42.114Z,4.15
2018-12-26T00:25:42.292Z,4.09
2018-12-26T00:26:42.471Z,4.09
2018-12-26T00:27:42.656Z,4.08
2018-12-26T00:28:42.835Z,4.06
2018-12-26T00:29:43.021Z,4.05
2018-12-26T00:30:43.210Z,4.12
2018-12-26T00:31:43.385Z,4.05
2018-12-26T00:32:43.567Z,4.09
2018-12-26T00:33:43.742Z,4.04
2018-12-26T00:34:43.942Z,4.09
2018-12-26T00:35:44.126Z,4.05
2018-12-26T00:39:27.661Z,4.14
2018-12-26T00:40:27.851Z,4.09
2018-12-26T00:41:28.040Z,4.14
2018-12-26T00:42:28.223Z,4.08
2018-12-26T00:43:28.410Z,3.93
2018-12-26T00:44:28.592Z,4.09
2018-12-26T00:45:28.769Z,4.18
2018-12-26T00:46:28.941Z,4.14
2018-12-26T00:47:29.130Z,4.09
2018-12-26T00:48:29.304Z,4.11
2018-12-26T00:49:29.487Z,4.05
2018-12-26T00:50:29.660Z,4.18
2018-12-26T00:51:29.846Z,4.06
2018-12-26T00:52:30.030Z,4.02
2018-12-26T00:53:30.208Z,4.00
2018-12-26T00:54:30.405Z,4.06
2018-12-26T00:55:30.589Z,4.08
2018-12-26T00:56:30.774Z,4.04
2018-12-26T00:57:30.973Z,3.98
2018-12-26T00:58:31.137Z,4.05
2018-12-26T00:59:31.318Z,4.04
2018-12-26T01:00:31.503Z,4.04
2018-12-26T01:01:31.696Z,4.11
2018-12-26T01:02:31.864Z,4.08
2018-12-26T01:03:32.047Z,4.04
2018-12-26T01:04:32.227Z,4.00
2018-12-26T01:05:32.432Z,4.02
2018-12-26T01:06:32.584Z,3.98
2018-12-26T01:07:32.767Z,4.05
2018-12-26T01:08:32.956Z,4.08
2018-12-26T01:09:33.118Z,4.11
2018-12-26T01:10:33.313Z,3.96
2018-12-26T01:11:33.498Z,4.06
2018-12-26T01:12:33.687Z,3.97
2018-12-26T01:13:33.877Z,3.98
2018-12-26T01:14:34.060Z,3.88
2018-12-26T01:15:34.240Z,4.00
2018-12-26T01:16:34.417Z,3.91
2018-12-26T01:17:34.602Z,3.93
2018-12-26T01:18:34.782Z,4.02
2018-12-26T01:19:34.964Z,4.05
2018-12-26T01:20:35.138Z,3.88
2018-12-26T01:21:35.327Z,3.93
2018-12-26T01:22:35.505Z,3.94
2018-12-26T01:23:35.683Z,3.93
2018-12-26T01:24:35.863Z,3.94
2018-12-26T01:25:36.046Z,3.91
2018-12-26T01:26:36.225Z,3.80
2018-12-26T01:27:36.413Z,3.88
2018-12-26T01:28:36.607Z,3.87
2018-12-26T01:29:36.781Z,3.91
2018-12-26T01:30:36.952Z,3.90
2018-12-26T01:31:37.142Z,3.90
2018-12-26T01:32:37.317Z,3.97
2018-12-26T01:33:37.506Z,3.86
2018-12-26T01:34:37.689Z,3.96
2018-12-26T01:35:37.868Z,3.96
2018-12-26T01:36:38.046Z,4.00
2018-12-26T01:37:38.233Z,3.96
2018-12-26T01:38:38.415Z,4.02
2018-12-26T01:39:38.588Z,3.91
2018-12-26T01:40:38.774Z,3.88
2018-12-26T01:41:38.950Z,3.83
2018-12-26T01:42:39.131Z,3.91
2018-12-26T01:43:39.317Z,3.83
2018-12-26T01:44:39.496Z,3.84
2018-12-26T01:45:39.677Z,3.78
2018-12-26T01:46:39.861Z,3.80
2018-12-26T01:47:40.036Z,3.72
2018-12-26T01:48:40.219Z,3.80
2018-12-26T01:49:40.401Z,3.75
2018-12-26T01:50:40.577Z,3.66
2018-12-26T01:51:40.755Z,3.62
2018-12-26T01:52:40.932Z,3.70
2018-12-26T01:53:41.132Z,3.73
2018-12-26T01:54:41.314Z,3.66
2018-12-26T01:55:41.499Z,3.72
2018-12-26T01:56:41.678Z,3.66
2018-12-26T01:57:41.850Z,3.61
2018-12-26T01:58:42.025Z,3.61
2018-12-26T01:59:42.192Z,3.58
2018-12-26T02:00:42.389Z,3.47
2018-12-26T02:01:42.573Z,3.33
2018-12-26T02:02:42.762Z,3.28
2018-12-26T02:03:42.964Z,3.33
2018-12-26T02:04:43.126Z,3.33
2018-12-26T02:05:43.303Z,3.28
2018-12-26T02:06:43.493Z,3.28
2018-12-26T02:07:43.670Z,3.24
2018-12-26T02:08:43.847Z,3.21
2018-12-26T02:09:44.032Z,3.24
2018-12-26T02:10:44.197Z,3.28
2018-12-26T02:11:44.387Z,3.29
2018-12-26T02:12:44.558Z,3.28
2018-12-26T02:13:44.746Z,3.14
2018-12-26T02:14:44.928Z,3.13
2018-12-26T02:15:45.107Z,3.05
2018-12-26T02:16:45.279Z,2.93
2018-12-26T02:17:45.467Z,2.84
2018-12-26T02:18:45.646Z,2.78
2018-12-26T02:19:45.827Z,2.71
2018-12-26T02:20:46.004Z,2.67
2018-12-26T02:21:46.182Z,2.52
2018-12-26T02:22:46.361Z,2.56
2018-12-26T02:23:46.537Z,2.53
2018-12-26T02:24:46.727Z,2.42
2018-12-26T02:25:46.907Z,2.31
2018-12-26T02:26:47.086Z,2.28
2018-12-26T02:27:47.262Z,2.16
2018-12-26T02:28:47.439Z,2.20
2018-12-26T02:29:47.621Z,2.05
2018-12-26T02:30:47.814Z,2.06
2018-12-26T02:31:47.990Z,2.09
2018-12-26T02:32:48.164Z,1.91
2018-12-26T02:33:48.343Z,1.91
2018-12-26T02:34:48.534Z,1.80
2018-12-26T02:35:48.719Z,1.77
2018-12-26T02:36:48.898Z,1.73
2018-12-26T02:37:49.093Z,1.72
2018-12-26T02:38:49.275Z,1.70
2018-12-26T02:39:49.452Z,1.63
2018-12-26T02:40:49.629Z,1.69
2018-12-26T02:41:49.822Z,1.66
2018-12-26T02:42:49.997Z,1.59
2018-12-26T02:43:50.175Z,1.65
2018-12-26T02:44:50.356Z,1.66
2018-12-26T02:45:50.533Z,1.68
2018-12-26T02:46:50.711Z,1.66
2018-12-26T02:47:50.891Z,1.69
2018-12-26T02:48:51.301Z,1.70
2018-12-26T02:49:51.225Z,1.63
2018-12-26T02:50:51.403Z,1.65
2018-12-26T02:51:51.578Z,1.68
2018-12-26T02:52:51.753Z,1.68
2018-12-26T02:53:51.935Z,1.62
2018-12-26T02:54:52.127Z,1.62
2018-12-26T02:55:52.291Z,1.72
2018-12-26T02:56:52.473Z,1.65
2018-12-26T02:57:52.658Z,1.45
2018-12-26T02:58:52.846Z,1.47
2018-12-26T02:59:53.020Z,1.48
2018-12-26T03:00:53.198Z,1.45
2018-12-26T03:01:53.396Z,1.48
2018-12-26T03:02:53.561Z,1.42
2018-12-26T03:03:53.735Z,1.42
2018-12-26T03:04:53.926Z,1.42
2018-12-26T03:05:54.100Z,1.40
2018-12-26T03:06:54.279Z,1.33
2018-12-26T03:07:54.454Z,1.41
2018-12-26T03:08:54.651Z,1.32
2018-12-26T03:09:54.829Z,1.33
2018-12-26T03:10:55.016Z,1.36
2018-12-26T03:11:55.186Z,1.27
2018-12-26T03:12:55.360Z,1.26
2018-12-26T03:13:55.537Z,1.33
2018-12-26T03:14:55.724Z,1.29
2018-12-26T03:15:55.901Z,1.18
2018-12-26T03:16:56.064Z,1.20
2018-12-26T03:17:56.248Z,1.32
2018-12-26T03:18:56.443Z,1.29
2018-12-26T03:19:56.613Z,1.18
2018-12-26T03:20:56.793Z,1.32
2018-12-26T03:21:57.065Z,1.22
2018-12-26T03:22:57.146Z,1.27
2018-12-26T03:23:57.331Z,1.22
2018-12-26T03:24:57.509Z,1.27
2018-12-26T03:25:57.686Z,1.27
2018-12-26T03:26:57.868Z,1.16
2018-12-26T03:27:58.043Z,1.22
2018-12-26T03:28:58.232Z,1.08
2018-12-26T03:29:58.408Z,1.11
2018-12-26T03:30:58.594Z,1.08
2018-12-26T03:31:58.779Z,1.08
2018-12-26T03:32:58.948Z,1.14
2018-12-26T03:33:59.140Z,1.15
2018-12-26T03:34:59.313Z,1.12
2018-12-26T03:35:59.504Z,1.05
2018-12-26T03:36:59.678Z,1.11
2018-12-26T03:37:59.861Z,1.09
2018-12-26T03:39:00.043Z,1.09
2018-12-26T03:40:00.329Z,1.15
2018-12-26T03:41:00.401Z,1.14
2018-12-26T03:42:00.578Z,1.14
2018-12-26T03:43:00.762Z,1.11
2018-12-26T03:44:00.943Z,1.22
2018-12-26T03:45:01.133Z,1.09
2018-12-26T03:46:01.297Z,1.12
2018-12-26T03:47:01.474Z,1.20
2018-12-26T03:48:01.652Z,1.16
2018-12-26T03:49:01.835Z,1.09
2018-12-26T03:50:02.019Z,1.05
2018-12-26T03:51:02.197Z,1.02
2018-12-26T03:52:02.382Z,1.09
2018-12-26T03:53:02.549Z,1.12
2018-12-26T03:54:02.730Z,1.14
2018-12-26T03:55:02.906Z,1.09
2018-12-26T03:56:03.085Z,1.11
2018-12-26T03:57:06.279Z,0.94
2018-12-26T03:58:03.448Z,1.04
2018-12-26T03:59:03.649Z,0.97
2018-12-26T04:00:03.808Z,1.00
2018-12-26T04:01:03.993Z,0.97
2018-12-26T04:02:04.182Z,0.91
2018-12-26T04:03:04.353Z,0.91
2018-12-26T04:04:04.532Z,0.84
2018-12-26T04:05:04.718Z,0.79
2018-12-26T04:06:04.908Z,0.79
2018-12-26T04:07:05.086Z,0.80
2018-12-26T04:08:05.270Z,0.84
2018-12-26T04:09:05.445Z,0.75
2018-12-26T04:10:05.621Z,0.86
2018-12-26T04:11:06.040Z,0.80
2018-12-26T04:12:05.918Z,0.80
2018-12-26T04:13:06.098Z,0.88
2018-12-26T04:14:06.270Z,0.93
2018-12-26T04:15:06.460Z,0.93
2018-12-26T04:16:06.636Z,0.79
2018-12-26T04:17:06.810Z,0.76
2018-12-26T04:18:06.990Z,0.83
2018-12-26T04:19:07.166Z,0.73
2018-12-26T04:20:07.353Z,0.76
2018-12-26T04:21:07.523Z,0.70
2018-12-26T04:22:07.700Z,0.70
2018-12-26T04:23:07.879Z,0.66
2018-12-26T04:24:08.050Z,0.68
2018-12-26T04:25:08.231Z,0.69
2018-12-26T04:26:08.418Z,0.65
2018-12-26T04:27:15.492Z,0.61
2018-12-26T04:28:08.764Z,0.60
2018-12-26T04:29:08.946Z,0.55
2018-12-26T04:30:09.123Z,0.65
2018-12-26T04:31:09.308Z,0.68
2018-12-26T04:32:09.496Z,0.51
2018-12-26T04:33:09.672Z,0.62
2018-12-26T04:34:09.887Z,0.60
2018-12-26T04:35:10.046Z,0.60
2018-12-26T04:36:10.229Z,0.65
2018-12-26T04:37:10.413Z,0.70
2018-12-26T04:38:10.590Z,0.57
2018-12-26T04:39:10.770Z,0.42
2018-12-26T04:40:10.945Z,0.53
2018-12-26T04:41:11.126Z,0.41
2018-12-26T04:42:11.343Z,0.44
2018-12-26T04:43:11.520Z,0.42
2018-12-26T04:44:11.697Z,0.46
2018-12-26T04:45:11.878Z,0.41
2018-12-26T04:46:12.066Z,0.46
2018-12-26T04:47:12.237Z,0.49
2018-12-26T04:48:12.413Z,0.41
2018-12-26T04:49:12.596Z,0.29
2018-12-26T04:50:12.798Z,0.26
2018-12-26T04:51:12.976Z,0.23
2018-12-26T04:52:13.143Z,0.28
2018-12-26T04:53:13.341Z,0.20
2018-12-26T04:54:13.517Z,0.31
2018-12-26T04:55:13.701Z,0.11
2018-12-26T04:56:13.891Z,0.11
2018-12-26T04:57:14.061Z,0.17
2018-12-26T04:58:14.245Z,0.17
2018-12-26T04:59:14.421Z,0.17
2018-12-26T05:00:14.607Z,0.10
2018-12-26T05:01:14.779Z,0.10
2018-12-26T05:02:14.958Z,0.11
2018-12-26T05:03:15.132Z,0.08
2018-12-26T05:04:15.316Z,0.03
2018-12-26T05:05:15.571Z,0.08
2018-12-26T05:06:15.677Z,0.11
2018-12-26T05:07:15.849Z,0.03
2018-12-26T05:08:16.031Z,0.04
2018-12-26T05:09:16.210Z,0.08
2018-12-26T05:10:16.384Z,0.11
2018-12-26T05:11:16.561Z,0.08
2018-12-26T05:12:16.744Z,0.08
2018-12-26T05:13:16.928Z,-0.04
2018-12-26T05:14:17.105Z,0.02
2018-12-26T05:15:18.104Z,-0.05
2018-12-26T05:16:17.449Z,0.03
2018-12-26T05:17:17.623Z,-0.07
2018-12-26T05:18:17.809Z,-0.04
2018-12-26T05:19:17.983Z,-0.07
2018-12-26T05:20:18.163Z,0.02
2018-12-26T05:21:18.343Z,-0.04
2018-12-26T05:22:18.518Z,0.00
2018-12-26T05:23:18.697Z,-0.03
2018-12-26T05:24:18.878Z,0.04
2018-12-26T05:25:19.054Z,0.03
2018-12-26T05:26:19.231Z,0.00
2018-12-26T05:27:19.417Z,0.07
2018-12-26T05:28:19.624Z,0.10
2018-12-26T05:29:19.782Z,0.10
2018-12-26T05:30:19.959Z,0.17
2018-12-26T05:31:20.140Z,0.02
2018-12-26T05:32:20.321Z,-0.04
2018-12-26T05:33:20.504Z,0.07
2018-12-26T05:34:20.679Z,0.04
2018-12-26T05:35:20.856Z,0.14
2018-12-26T05:36:21.038Z,0.10
2018-12-26T05:37:21.214Z,0.07
2018-12-26T05:38:22.129Z,0.10
2018-12-26T05:39:21.563Z,-0.03
2018-12-26T05:40:21.743Z,0.08
2018-12-26T05:41:21.920Z,0.08
2018-12-26T05:42:22.215Z,0.13
2018-12-26T05:43:22.291Z,0.04
2018-12-26T05:44:22.466Z,0.13
2018-12-26T05:45:22.648Z,0.07
2018-12-26T05:46:22.829Z,0.11
2018-12-26T05:47:23.002Z,0.14
2018-12-26T05:48:23.189Z,0.11
2018-12-26T05:49:23.362Z,0.21
2018-12-26T05:50:23.540Z,0.18
2018-12-26T05:51:23.714Z,0.26
2018-12-26T05:52:23.897Z,0.29
2018-12-26T05:53:24.082Z,0.33
2018-12-26T05:54:24.254Z,0.46
2018-12-26T05:55:24.434Z,0.51
2018-12-26T05:56:24.611Z,0.49
2018-12-26T05:57:24.794Z,0.51
2018-12-26T05:58:24.974Z,0.62
2018-12-26T05:59:25.152Z,0.58
2018-12-26T06:00:25.345Z,0.53
2018-12-26T06:01:25.554Z,0.65
2018-12-26T06:02:25.706Z,0.68
2018-12-26T06:03:25.883Z,0.76
2018-12-26T06:04:26.069Z,0.72
2018-12-26T06:05:26.242Z,0.80
2018-12-26T06:06:26.421Z,0.83
2018-12-26T06:07:26.605Z,0.80
2018-12-26T06:08:26.795Z,0.69
2018-12-26T06:09:26.947Z,0.57
2018-12-26T06:10:27.135Z,0.39
2018-12-26T06:11:27.306Z,0.24
2018-12-26T06:12:27.540Z,0.31
2018-12-26T06:13:27.662Z,0.11
2018-12-26T06:14:27.840Z,0.02
2018-12-26T06:15:28.020Z,0.00
2018-12-26T06:16:28.197Z,-0.01
2018-12-26T06:17:28.372Z,-0.05
2018-12-26T06:18:28.546Z,-0.01
2018-12-26T06:19:28.725Z,0.04
2018-12-26T06:20:28.900Z,-0.04
2018-12-26T06:21:29.081Z,-0.04
2018-12-26T06:22:29.257Z,0.07
2018-12-26T06:23:29.438Z,-0.03
2018-12-26T06:24:29.617Z,0.07
2018-12-26T06:25:29.799Z,0.03
2018-12-26T06:26:29.971Z,-0.03
2018-12-26T06:27:30.148Z,0.14
2018-12-26T06:28:30.330Z,0.07
2018-12-26T06:29:30.601Z,0.11
2018-12-26T06:30:30.732Z,0.23
2018-12-26T06:31:30.909Z,0.17
2018-12-26T06:32:31.093Z,0.20
2018-12-26T06:33:31.267Z,0.23
2018-12-26T06:34:31.449Z,0.26
2018-12-26T06:35:31.625Z,0.28
2018-12-26T06:36:31.909Z,0.32
2018-12-26T06:37:31.981Z,0.32
2018-12-26T06:38:32.173Z,0.29
2018-12-26T06:39:32.442Z,0.32
2018-12-26T06:40:32.490Z,0.33
2018-12-26T06:41:32.668Z,0.21
2018-12-26T06:42:32.935Z,0.32
2018-12-26T06:43:33.032Z,0.36
2018-12-26T06:44:33.204Z,0.46
2018-12-26T06:45:33.377Z,0.50
2018-12-26T06:46:33.556Z,0.44
2018-12-26T06:47:33.731Z,0.60
2018-12-26T06:48:33.908Z,0.61
2018-12-26T06:49:34.087Z,0.51
2018-12-26T06:50:34.270Z,0.65
2018-12-26T06:51:34.443Z,0.55
2018-12-26T06:52:34.621Z,0.72
2018-12-26T06:53:34.797Z,0.78
2018-12-26T06:54:34.986Z,0.68
2018-12-26T06:55:35.163Z,0.75
2018-12-26T06:56:35.343Z,0.73
2018-12-26T06:57:35.521Z,0.83
2018-12-26T06:58:35.702Z,0.87
2018-12-26T06:59:35.880Z,0.87
2018-12-26T07:00:36.057Z,0.83
2018-12-26T07:01:36.247Z,0.86
2018-12-26T07:02:36.407Z,0.86
2018-12-26T07:03:36.587Z,0.90
2018-12-26T07:04:36.814Z,0.83
2018-12-26T07:05:36.939Z,0.93
2018-12-26T07:06:37.125Z,0.87
2018-12-26T07:07:37.304Z,0.87
2018-12-26T07:08:37.479Z,0.84
2018-12-26T07:09:37.657Z,0.87
2018-12-26T07:10:37.836Z,0.96
2018-12-26T07:11:38.015Z,0.87
2018-12-26T07:12:38.194Z,0.91
2018-12-26T07:13:38.381Z,0.88
2018-12-26T07:14:38.552Z,0.83
2018-12-26T07:15:38.727Z,0.79
2018-12-26T07:16:38.917Z,0.86
2018-12-26T07:17:39.093Z,0.76
2018-12-26T07:18:39.279Z,0.75
2018-12-26T07:19:39.455Z,0.70
2018-12-26T07:20:39.634Z,0.76
2018-12-26T07:21:39.816Z,0.83
2018-12-26T07:22:39.991Z,0.79
2018-12-26T07:23:40.174Z,0.83
2018-12-26T07:24:40.348Z,0.79
2018-12-26T07:25:40.529Z,0.78
2018-12-26T07:26:40.705Z,0.98
2018-12-26T07:27:40.978Z,0.84
2018-12-26T07:28:41.087Z,1.05
2018-12-26T07:29:41.267Z,1.11
2018-12-26T07:30:41.452Z,0.98
2018-12-26T07:31:41.616Z,1.06
2018-12-26T07:32:41.792Z,1.08
2018-12-26T07:33:41.969Z,1.06
2018-12-26T07:34:42.637Z,1.12
2018-12-26T07:35:42.336Z,1.16
2018-12-26T07:36:42.537Z,1.15
2018-12-26T07:37:42.696Z,1.16
2018-12-26T07:38:42.876Z,1.09
2018-12-26T07:39:43.061Z,1.11
2018-12-26T07:40:43.243Z,1.08
2018-12-26T07:41:43.421Z,1.11
2018-12-26T07:42:43.601Z,1.20
2018-12-26T07:43:43.856Z,1.27
2018-12-26T07:44:43.953Z,1.23
2018-12-26T07:45:44.131Z,1.32
2018-12-26T07:46:44.314Z,1.40
2018-12-26T07:47:44.483Z,1.34
2018-12-26T07:48:44.665Z,1.40
2018-12-26T07:49:44.866Z,1.44
2018-12-26T07:50:45.029Z,1.37
2018-12-26T07:51:45.227Z,1.45
2018-12-26T07:52:45.399Z,1.42
2018-12-26T07:53:45.612Z,1.47
2018-12-26T07:54:45.850Z,1.55
2018-12-26T07:55:45.936Z,1.54
2018-12-26T07:56:46.117Z,1.45
2018-12-26T07:57:46.309Z,1.54
2018-12-26T07:58:46.476Z,1.52
2018-12-26T07:59:46.668Z,1.55
2018-12-26T08:00:46.840Z,1.50
2018-12-26T08:01:47.015Z,1.58
2018-12-26T08:02:47.203Z,1.63
2018-12-26T08:03:47.374Z,1.52
2018-12-26T08:04:47.563Z,1.45
2018-12-26T08:05:47.727Z,1.41
2018-12-26T08:06:47.910Z,1.47
2018-12-26T08:07:48.080Z,1.45
2018-12-26T08:08:48.267Z,1.37
2018-12-26T08:09:48.445Z,1.44
2018-12-26T08:10:48.617Z,1.40
2018-12-26T08:11:48.809Z,1.36
2018-12-26T08:12:48.979Z,1.36
2018-12-26T08:13:49.150Z,1.33
2018-12-26T08:14:49.346Z,1.37
2018-12-26T08:15:49.525Z,1.40
2018-12-26T08:16:49.704Z,1.50
2018-12-26T08:17:49.892Z,1.45
2018-12-26T08:18:50.058Z,1.45
2018-12-26T08:19:50.265Z,1.45
2018-12-26T08:20:50.410Z,1.47
2018-12-26T08:21:50.586Z,1.40
2018-12-26T08:22:50.762Z,1.37
2018-12-26T08:23:50.944Z,1.51
2018-12-26T08:24:51.171Z,1.51
2018-12-26T08:25:51.372Z,1.48
2018-12-26T08:26:53.587Z,1.54
2018-12-26T08:27:51.629Z,1.55
2018-12-26T08:28:51.800Z,1.45
2018-12-26T08:29:51.975Z,1.54
2018-12-26T08:30:52.149Z,1.52
2018-12-26T08:31:52.329Z,1.55
2018-12-26T08:32:52.548Z,1.47
2018-12-26T08:33:52.724Z,1.55
2018-12-26T08:34:52.899Z,1.52
2018-12-26T08:35:53.115Z,1.54
2018-12-26T08:36:53.518Z,1.60
2018-12-26T08:37:53.501Z,1.59
2018-12-26T08:38:53.673Z,1.65
2018-12-26T08:39:53.859Z,1.55
2018-12-26T08:40:54.034Z,1.66
2018-12-26T08:41:54.213Z,1.73
2018-12-26T08:42:54.401Z,1.77
2018-12-26T08:43:54.575Z,1.72
2018-12-26T08:44:54.754Z,1.88
2018-12-26T08:45:54.951Z,1.86
2018-12-26T08:46:55.199Z,1.86
2018-12-26T08:47:55.313Z,1.83
2018-12-26T08:48:55.481Z,1.80
2018-12-26T08:49:55.659Z,1.79
2018-12-26T08:50:55.822Z,1.77
2018-12-26T08:51:56.014Z,1.88
2018-12-26T08:52:56.180Z,1.90
2018-12-26T08:53:56.354Z,1.79
2018-12-26T08:54:56.576Z,1.80
2018-12-26T08:55:56.701Z,1.95
2018-12-26T08:56:56.885Z,1.83
2018-12-26T08:57:57.065Z,1.91
2018-12-26T08:58:57.241Z,1.98
2018-12-26T08:59:57.419Z,2.05
2018-12-26T09:00:57.597Z,2.05
2018-12-26T09:01:57.771Z,2.06
2018-12-26T09:02:57.959Z,1.98
2018-12-26T09:03:58.141Z,1.91
2018-12-26T09:04:58.316Z,2.05
2018-12-26T09:05:58.488Z,2.06
2018-12-26T09:06:58.674Z,2.07
2018-12-26T09:07:58.852Z,2.03
2018-12-26T09:08:59.075Z,1.91
2018-12-26T09:09:59.229Z,1.99
2018-12-26T09:10:59.412Z,1.91
2018-12-26T09:11:59.609Z,1.90
2018-12-26T09:12:59.759Z,2.00
2018-12-26T09:13:59.974Z,2.05
2018-12-26T09:15:00.149Z,2.05
2018-12-26T09:16:00.242Z,2.12
2018-12-26T09:17:00.414Z,2.06
2018-12-26T09:18:00.593Z,2.23
2018-12-26T09:19:00.771Z,2.36
2018-12-26T09:20:00.945Z,2.35
2018-12-26T09:21:01.137Z,2.38
2018-12-26T09:22:01.307Z,2.35
2018-12-26T09:23:01.522Z,2.36
2018-12-26T09:24:01.673Z,2.41
2018-12-26T09:25:01.858Z,2.24
2018-12-26T09:26:02.032Z,2.34
2018-12-26T09:27:02.216Z,2.21
2018-12-26T09:28:02.378Z,2.17
2018-12-26T09:29:02.587Z,2.21
2018-12-26T09:30:02.802Z,2.20
2018-12-26T09:31:02.997Z,2.10
2018-12-26T09:32:03.168Z,2.05
2018-12-26T09:33:03.368Z,2.10
2018-12-26T09:34:03.569Z,2.12
2018-12-26T09:35:03.748Z,2.17
2018-12-26T09:36:03.947Z,2.07
2018-12-26T09:37:04.109Z,2.20
2018-12-26T09:38:04.284Z,2.12
2018-12-26T09:39:04.516Z,2.23
2018-12-26T09:40:04.642Z,2.14
2018-12-26T09:41:04.830Z,2.07
2018-12-26T09:42:04.992Z,2.18
2018-12-26T09:43:05.173Z,2.06
2018-12-26T09:44:05.368Z,2.03
2018-12-26T09:45:05.526Z,2.00
2018-12-26T09:46:05.709Z,2.14
2018-12-26T09:47:05.896Z,2.16
2018-12-26T09:48:06.083Z,2.12
2018-12-26T09:49:06.553Z,2.05
2018-12-26T09:50:06.520Z,2.12
2018-12-26T09:51:06.663Z,2.09
2018-12-26T09:52:06.844Z,2.17
2018-12-26T09:53:07.051Z,2.24
2018-12-26T09:54:07.206Z,2.18
2018-12-26T09:55:07.367Z,2.21
2018-12-26T09:56:07.572Z,2.24
2018-12-26T09:57:07.733Z,2.38
2018-12-26T09:58:07.905Z,2.42
2018-12-26T09:59:08.113Z,2.38
2018-12-26T10:00:08.272Z,2.53
2018-12-26T10:01:08.452Z,2.63
2018-12-26T10:02:08.633Z,2.71
2018-12-26T10:03:08.814Z,2.71
2018-12-26T10:04:08.992Z,2.81
2018-12-26T10:05:09.179Z,2.74
2018-12-26T10:06:09.355Z,2.69
2018-12-26T10:07:09.535Z,2.75
2018-12-26T10:08:09.711Z,2.84
2018-12-26T10:09:09.903Z,2.81
2018-12-26T10:10:10.088Z,2.85
2018-12-26T10:11:10.280Z,2.84
2018-12-26T10:12:10.454Z,2.81
2018-12-26T10:13:10.639Z,2.87
2018-12-26T10:14:10.817Z,2.90
2018-12-26T10:15:11.005Z,3.02
2018-12-26T10:16:11.179Z,3.14
2018-12-26T10:17:11.362Z,3.03
2018-12-26T10:18:11.545Z,3.06
2018-12-26T10:19:11.723Z,3.03
2018-12-26T10:20:11.923Z,3.05
2018-12-26T10:21:12.095Z,3.10
2018-12-26T10:22:12.268Z,3.06
2018-12-26T10:23:12.445Z,3.08
2018-12-26T10:24:12.635Z,3.13
2018-12-26T10:25:12.811Z,3.05
2018-12-26T10:26:12.991Z,3.06
2018-12-26T10:27:13.167Z,3.05
2018-12-26T10:28:13.344Z,3.08
2018-12-26T10:29:13.527Z,3.10
2018-12-26T10:30:13.708Z,3.10
2018-12-26T10:31:13.891Z,3.11
2018-12-26T10:32:14.068Z,3.20
2018-12-26T10:33:14.242Z,3.40
2018-12-26T10:34:14.414Z,3.33
2018-12-26T10:35:14.594Z,3.31
2018-12-26T10:36:14.773Z,3.45
2018-12-26T10:37:14.951Z,3.36
2018-12-26T10:38:15.137Z,3.40
2018-12-26T10:39:15.326Z,3.33
2018-12-26T10:40:15.502Z,3.33
2018-12-26T10:41:15.694Z,3.42
2018-12-26T10:42:15.871Z,3.43
2018-12-26T10:43:16.052Z,3.36
2018-12-26T10:44:16.230Z,3.33
2018-12-26T10:45:16.418Z,3.39
2018-12-26T10:46:16.903Z,3.40
2018-12-26T10:47:16.814Z,3.47
2018-12-26T10:48:17.035Z,3.39
2018-12-26T10:49:17.198Z,3.51
2018-12-26T10:50:17.371Z,3.55
2018-12-26T10:51:17.557Z,3.36
2018-12-26T10:52:17.739Z,3.33
2018-12-26T10:53:17.918Z,3.36
2018-12-26T10:54:18.102Z,3.39
2018-12-26T10:55:18.273Z,3.42
2018-12-26T10:56:18.462Z,3.33
2018-12-26T10:57:18.626Z,3.35
2018-12-26T10:58:18.826Z,3.35
2018-12-26T10:59:19.016Z,3.29
2018-12-26T11:00:19.193Z,3.28
2018-12-26T11:01:19.376Z,3.24
2018-12-26T11:02:19.546Z,3.32
2018-12-26T11:03:19.731Z,3.33
2018-12-26T11:04:19.908Z,3.45
2018-12-26T11:05:20.091Z,3.43
2018-12-26T11:06:20.274Z,3.29
2018-12-26T11:07:20.450Z,3.33
2018-12-26T11:08:20.640Z,3.36
2018-12-26T11:09:20.820Z,3.42
2018-12-26T11:10:21.001Z,3.33
2018-12-26T11:11:21.180Z,3.28
2018-12-26T11:12:21.363Z,3.33
2018-12-26T11:13:21.660Z,3.39
2018-12-26T11:14:21.718Z,3.31
2018-12-26T11:15:21.952Z,3.36
2018-12-26T11:16:22.300Z,3.28
2018-12-26T11:17:22.210Z,3.31
2018-12-26T11:18:22.390Z,3.31
2018-12-26T11:19:22.572Z,3.43
2018-12-26T11:20:22.745Z,3.42
2018-12-26T11:21:22.945Z,3.39
2018-12-26T11:22:23.150Z,3.33
2018-12-26T11:23:23.316Z,3.36
2018-12-26T11:24:23.485Z,3.39
2018-12-26T11:25:23.681Z,3.51
2018-12-26T11:26:23.843Z,3.48
2018-12-26T11:27:24.042Z,3.45
2018-12-26T11:28:24.219Z,3.60
2018-12-26T11:29:24.401Z,3.68
2018-12-26T11:30:24.574Z,3.78
2018-12-26T11:31:24.749Z,3.78
2018-12-26T11:32:24.943Z,3.72
2018-12-26T11:33:25.125Z,3.76
2018-12-26T11:34:25.306Z,3.83
2018-12-26T11:35:25.477Z,3.78
2018-12-26T11:36:25.679Z,3.70
2018-12-26T11:37:25.853Z,3.65
2018-12-26T11:38:26.078Z,3.61
2018-12-26T11:39:26.231Z,3.70
2018-12-26T11:40:26.406Z,3.80
2018-12-26T11:41:26.592Z,3.72
2018-12-26T11:42:26.774Z,3.68
2018-12-26T11:43:26.952Z,3.69
2018-12-26T11:44:27.153Z,3.62
2018-12-26T11:45:27.344Z,3.55
2018-12-26T11:46:27.533Z,3.48
2018-12-26T11:47:27.715Z,3.26
2018-12-26T11:48:27.879Z,3.42
2018-12-26T11:49:28.064Z,3.52
2018-12-26T11:50:28.470Z,3.51
2018-12-26T11:51:28.447Z,3.47
2018-12-26T11:52:28.691Z,3.51
2018-12-26T11:53:28.824Z,3.45
2018-12-26T11:54:29.009Z,3.39
2018-12-26T11:55:29.195Z,3.40
2018-12-26T11:56:29.420Z,3.48
2018-12-26T11:57:29.564Z,3.54
2018-12-26T11:58:29.768Z,3.52
2018-12-26T11:59:29.932Z,3.66
2018-12-26T12:00:30.153Z,3.60
2018-12-26T12:01:30.323Z,3.58
2018-12-26T12:02:30.472Z,3.60
2018-12-26T12:03:30.716Z,3.68
2018-12-26T12:04:30.865Z,3.70
2018-12-26T12:05:31.040Z,3.90
2018-12-26T12:06:31.233Z,4.02
2018-12-26T12:07:31.426Z,4.06
2018-12-26T12:08:31.658Z,4.05
2018-12-26T12:09:31.796Z,4.18
2018-12-26T12:10:31.975Z,4.11
2018-12-26T12:11:32.151Z,4.11
2018-12-26T12:12:32.340Z,4.04
2018-12-26T12:13:32.521Z,4.12
2018-12-26T12:14:32.709Z,4.02
2018-12-26T12:15:32.884Z,4.02
2018-12-26T12:16:33.067Z,4.11
2018-12-26T12:17:33.245Z,4.02
2018-12-26T12:18:33.431Z,4.08
2018-12-26T12:19:33.625Z,4.04
2018-12-26T12:20:33.801Z,4.08
2018-12-26T12:21:33.986Z,4.05
2018-12-26T12:22:34.165Z,4.08
2018-12-26T12:23:34.349Z,3.97
2018-12-26T12:24:34.546Z,3.94
2018-12-26T12:25:34.733Z,3.98
2018-12-26T12:26:34.926Z,3.88
2018-12-26T12:27:35.099Z,3.90
2018-12-26T12:28:35.284Z,3.84
2018-12-26T12:29:36.025Z,3.78
2018-12-26T12:30:35.650Z,3.88
2018-12-26T12:31:35.835Z,3.73
2018-12-26T12:32:36.014Z,3.78
2018-12-26T12:33:36.200Z,3.78
2018-12-26T12:34:36.377Z,3.79
2018-12-26T12:35:36.552Z,3.68
2018-12-26T12:36:36.751Z,3.73
2018-12-26T12:37:36.943Z,3.75
2018-12-26T12:38:37.126Z,3.78
2018-12-26T12:39:37.313Z,3.80
2018-12-26T12:40:37.486Z,3.76
2018-12-26T12:41:37.666Z,3.75
2018-12-26T12:42:37.851Z,3.70
2018-12-26T12:43:38.037Z,3.91
2018-12-26T12:44:38.230Z,3.98
2018-12-26T12:45:38.420Z,3.96
2018-12-26T12:46:38.592Z,3.90
2018-12-26T12:47:38.786Z,3.91
2018-12-26T12:48:38.964Z,3.97
2018-12-26T12:49:39.154Z,3.91
2018-12-26T12:50:39.322Z,3.98
2018-12-26T12:51:39.504Z,4.00
2018-12-26T12:52:39.693Z,3.90
2018-12-26T12:53:39.871Z,3.98
2018-12-26T12:54:40.053Z,3.94
2018-12-26T12:55:41.983Z,3.87
2018-12-26T12:56:40.425Z,3.93
2018-12-26T12:57:40.601Z,3.96
2018-12-26T12:58:40.781Z,3.90
2018-12-26T12:59:44.993Z,3.96
2018-12-26T13:00:41.148Z,3.93
2018-12-26T13:01:41.322Z,3.93
2018-12-26T13:02:41.529Z,3.88
2018-12-26T13:03:46.499Z,3.90
2018-12-26T13:04:41.901Z,3.96
2018-12-26T13:05:42.079Z,3.91
2018-12-26T13:06:42.251Z,3.96
2018-12-26T13:07:42.434Z,3.98
2018-12-26T13:08:42.617Z,3.91
2018-12-26T13:09:42.797Z,4.00
2018-12-26T13:10:42.977Z,3.91
2018-12-26T13:11:43.197Z,3.96
2018-12-26T13:12:43.398Z,3.94
2018-12-26T13:13:43.590Z,4.06
2018-12-26T13:14:43.774Z,4.02
2018-12-26T13:15:43.949Z,3.87
2018-12-26T13:16:44.137Z,3.87
2018-12-26T13:17:44.312Z,3.84
2018-12-26T13:18:44.497Z,3.66
2018-12-26T13:19:44.675Z,3.62
2018-12-26T13:20:44.855Z,3.78
2018-12-26T13:21:45.034Z,3.78
2018-12-26T13:22:45.219Z,3.90